Terminal Aerodrome Forecast
Issued by NWS Pocatello, ID

Home | Current Version | Previous Version | Text Only | Print | Product List | Glossary On
Versions: 1 2 3 4 5 6 7 8 9 10 11 12 13 14 15 16 17 18 19 20
449
FTUS45 KPIH 232324
TAFPIH
TAF
KPIH 232324Z 2400/2424 25014KT P6SM SCT040
     FM240200 22008KT P6SM FEW015
     FM241600 16008KT P6SM SKC
     FM242000 18012G22KT P6SM BKN150=

USA.gov is the U.S. government's official web portal to all federal, state and local government web resources and services.